createdAt,value
2022-11-20T00:01:33.102Z,71.37
2022-11-20T00:04:01.158Z,71.15
2022-11-20T00:06:29.725Z,71.06
2022-11-20T00:08:59.353Z,70.91
2022-11-20T00:11:28.491Z,71.10
2022-11-20T00:13:58.343Z,70.96
2022-11-20T00:16:28.617Z,70.88
2022-11-20T00:18:56.671Z,70.91
2022-11-20T00:21:29.656Z,70.78
2022-11-20T00:23:58.628Z,70.86
2022-11-20T00:26:29.105Z,70.78
2022-11-20T00:28:59.421Z,70.72
2022-11-20T00:31:28.579Z,70.72
2022-11-20T00:33:56.739Z,70.70
2022-11-20T00:36:26.918Z,70.98
2022-11-20T00:38:59.265Z,71.05
2022-11-20T00:41:29.100Z,71.01
2022-11-20T00:43:57.660Z,71.01
2022-11-20T00:46:27.862Z,71.19
2022-11-20T00:48:56.095Z,71.18
2022-11-20T00:51:26.615Z,71.28
2022-11-20T00:53:57.958Z,71.23
2022-11-20T00:56:26.068Z,71.07
2022-11-20T00:58:53.812Z,71.00
2022-11-20T01:02:06.511Z,71.15
2022-11-20T01:04:34.980Z,71.18
2022-11-20T01:07:03.121Z,70.99
2022-11-20T01:09:31.012Z,71.13
2022-11-20T01:12:00.113Z,71.22
2022-11-20T01:14:28.085Z,71.12
2022-11-20T01:16:56.853Z,71.23
2022-11-20T01:19:26.124Z,71.35
2022-11-20T01:21:55.644Z,71.40
2022-11-20T01:24:24.322Z,71.50
2022-11-20T01:26:53.136Z,71.40
2022-11-20T01:29:25.404Z,71.35
2022-11-20T01:31:54.249Z,71.30
2022-11-20T01:34:23.615Z,71.39
2022-11-20T01:36:54.280Z,71.24
2022-11-20T01:39:23.479Z,71.24
2022-11-20T01:42:11.912Z,71.15
2022-11-20T01:44:55.209Z,71.28
2022-11-20T01:47:31.446Z,71.40
2022-11-20T01:50:19.765Z,71.43
2022-11-20T01:52:52.644Z,71.40
2022-11-20T01:55:26.823Z,71.40
2022-11-20T01:57:55.671Z,71.46
2022-11-20T02:00:23.830Z,71.47
2022-11-20T02:02:59.655Z,71.65
2022-11-20T02:05:42.885Z,71.74
2022-11-20T02:08:10.884Z,71.68
2022-11-20T02:10:38.897Z,71.76
2022-11-20T02:13:25.260Z,71.81
2022-11-20T02:15:53.481Z,71.80
2022-11-20T02:18:22.520Z,71.99
2022-11-20T02:20:56.174Z,71.90
2022-11-20T02:23:40.464Z,72.25
2022-11-20T02:26:11.847Z,72.32
2022-11-20T02:28:40.213Z,72.34
2022-11-20T02:31:08.707Z,72.23
2022-11-20T02:33:36.556Z,72.46
2022-11-20T02:36:04.565Z,72.29
2022-11-20T02:38:32.708Z,72.42
2022-11-20T02:41:00.730Z,72.55
2022-11-20T02:43:28.539Z,72.47
2022-11-20T02:45:56.384Z,72.60
2022-11-20T02:48:25.344Z,72.68
2022-11-20T02:50:53.285Z,72.48
2022-11-20T02:53:20.985Z,72.66
2022-11-20T02:55:48.821Z,72.46
2022-11-20T02:58:16.637Z,72.61
2022-11-20T03:00:44.338Z,72.84
2022-11-20T03:03:12.524Z,72.64
2022-11-20T03:05:40.358Z,72.53
2022-11-20T03:08:08.090Z,72.62
2022-11-20T03:10:35.933Z,72.69
2022-11-20T03:13:03.781Z,72.50
2022-11-20T03:15:31.497Z,72.58
2022-11-20T03:17:59.453Z,72.52
2022-11-20T03:20:27.705Z,72.67
2022-11-20T03:22:56.172Z,72.67
2022-11-20T03:25:24.272Z,72.68
2022-11-20T03:27:52.452Z,72.77
2022-11-20T03:30:20.129Z,72.74
2022-11-20T03:32:48.688Z,72.85
2022-11-20T03:35:16.613Z,72.72
2022-11-20T03:37:44.370Z,72.74
2022-11-20T03:40:12.775Z,72.81
2022-11-20T03:42:46.645Z,72.68
2022-11-20T03:45:18.665Z,72.88
2022-11-20T03:47:46.554Z,72.98
2022-11-20T03:50:14.914Z,72.97
2022-11-20T03:52:43.433Z,73.15
2022-11-20T03:55:11.379Z,73.01
2022-11-20T03:57:39.082Z,72.81
2022-11-20T04:00:07.570Z,72.89
2022-11-20T04:02:35.542Z,72.77
2022-11-20T04:05:03.343Z,72.77
2022-11-20T04:07:31.147Z,72.52
2022-11-20T04:09:59.028Z,72.55
2022-11-20T04:12:26.701Z,72.85
2022-11-20T04:14:54.696Z,72.89
2022-11-20T04:17:22.489Z,72.81
2022-11-20T04:19:50.312Z,72.93
2022-11-20T04:22:18.187Z,72.91
2022-11-20T04:24:46.126Z,72.89
2022-11-20T04:27:13.822Z,72.95
2022-11-20T04:29:41.832Z,72.99
2022-11-20T04:32:09.757Z,73.36
2022-11-20T04:34:37.514Z,73.41
2022-11-20T04:37:05.348Z,73.42
2022-11-20T04:39:33.232Z,73.50
2022-11-20T04:42:20.092Z,73.31
2022-11-20T04:44:48.002Z,73.17
2022-11-20T04:47:15.732Z,73.14
2022-11-20T04:49:43.439Z,73.09
2022-11-20T04:52:11.574Z,72.92
2022-11-20T04:54:39.833Z,73.07
2022-11-20T04:57:11.438Z,73.26
2022-11-20T04:59:42.423Z,73.31
2022-11-20T05:02:11.635Z,73.33
2022-11-20T05:04:39.393Z,73.39
2022-11-20T05:07:07.225Z,73.39
2022-11-20T05:09:35.311Z,73.42
2022-11-20T05:12:03.412Z,73.40
2022-11-20T05:14:31.530Z,73.04
2022-11-20T05:16:59.565Z,73.36
2022-11-20T05:19:27.410Z,73.16
2022-11-20T05:21:55.374Z,73.05
2022-11-20T05:24:23.225Z,73.32
2022-11-20T05:26:51.025Z,73.50
2022-11-20T05:29:19.309Z,73.35
2022-11-20T05:31:47.234Z,73.28
2022-11-20T05:34:14.993Z,73.18
2022-11-20T05:36:42.960Z,73.38
2022-11-20T05:39:10.733Z,73.41
2022-11-20T05:41:38.443Z,73.66
2022-11-20T05:44:06.550Z,73.90
2022-11-20T05:46:34.414Z,73.95
2022-11-20T05:49:02.156Z,73.87
2022-11-20T05:51:29.970Z,74.02
2022-11-20T05:53:59.522Z,74.16
2022-11-20T05:56:27.235Z,74.14
2022-11-20T05:58:55.386Z,74.09
2022-11-20T06:01:25.694Z,74.18
2022-11-20T06:03:54.590Z,74.17
2022-11-20T06:06:23.492Z,74.07
2022-11-20T06:08:51.256Z,74.09
2022-11-20T06:11:19.647Z,74.00
2022-11-20T06:13:48.232Z,74.16
2022-11-20T06:16:18.882Z,74.32
2022-11-20T06:18:47.585Z,74.51
2022-11-20T06:21:21.553Z,74.12
2022-11-20T06:23:50.937Z,74.41
2022-11-20T06:26:21.584Z,74.34
2022-11-20T06:28:49.726Z,74.41
2022-11-20T06:31:20.080Z,74.41
2022-11-20T06:33:49.130Z,74.67
2022-11-20T06:36:19.680Z,74.27
2022-11-20T06:38:47.512Z,74.53
2022-11-20T06:41:21.394Z,74.45
2022-11-20T06:43:49.877Z,74.56
2022-11-20T06:46:19.220Z,74.77
2022-11-20T06:48:48.094Z,74.53
2022-11-20T06:51:16.234Z,74.56
2022-11-20T06:53:44.423Z,74.34
2022-11-20T06:56:12.209Z,74.20
2022-11-20T06:58:39.907Z,74.14
2022-11-20T07:01:11.213Z,74.30
2022-11-20T07:03:39.405Z,74.00
2022-11-20T07:06:07.494Z,73.77
2022-11-20T07:08:36.026Z,73.75
2022-11-20T07:11:07.041Z,73.83
2022-11-20T07:13:35.405Z,73.95
2022-11-20T07:16:05.810Z,74.22
2022-11-20T07:18:34.170Z,73.83
2022-11-20T07:21:07.954Z,73.83
2022-11-20T07:23:36.298Z,73.67
2022-11-20T07:26:08.933Z,73.90
2022-11-20T07:28:38.231Z,73.71
2022-11-20T07:31:07.866Z,73.78
2022-11-20T07:33:35.923Z,73.50
2022-11-20T07:36:04.346Z,73.38
2022-11-20T07:38:32.022Z,73.50
2022-11-20T07:41:02.577Z,73.50
2022-11-20T07:43:31.242Z,73.57
2022-11-20T07:46:00.597Z,73.59
2022-11-20T07:48:28.299Z,73.29
2022-11-20T07:50:59.329Z,73.07
2022-11-20T07:53:26.999Z,73.33
2022-11-20T07:55:54.921Z,73.20
2022-11-20T07:58:23.425Z,73.34
2022-11-20T08:00:51.401Z,73.28
2022-11-20T08:03:24.374Z,73.13
2022-11-20T08:05:52.807Z,72.99
2022-11-20T08:08:21.100Z,72.76
2022-11-20T08:10:48.785Z,72.91
2022-11-20T08:13:35.248Z,72.85
2022-11-20T08:16:03.080Z,72.75
2022-11-20T08:18:32.700Z,72.64
2022-11-20T08:21:05.230Z,72.49
2022-11-20T08:23:33.391Z,72.13
2022-11-20T08:26:01.066Z,71.83
2022-11-20T08:28:28.831Z,71.89
2022-11-20T08:31:01.491Z,71.63
2022-11-20T08:33:30.054Z,71.40
2022-11-20T08:36:02.386Z,71.23
2022-11-20T08:38:31.028Z,71.02
2022-11-20T08:41:18.686Z,71.02
2022-11-20T08:43:47.251Z,70.98
2022-11-20T08:46:15.400Z,70.77
2022-11-20T08:48:43.458Z,70.54
2022-11-20T08:51:12.421Z,70.37
2022-11-20T08:53:41.788Z,70.32
2022-11-20T08:56:10.746Z,70.09
2022-11-20T08:59:09.762Z,70.09
2022-11-20T09:01:30.127Z,70.11
2022-11-20T09:03:58.287Z,69.78
2022-11-20T09:06:26.880Z,69.59
2022-11-20T09:08:55.659Z,69.56
2022-11-20T09:11:23.970Z,69.33
2022-11-20T09:13:51.779Z,69.18
2022-11-20T09:16:19.908Z,69.17
2022-11-20T09:18:53.927Z,68.96
2022-11-20T09:21:30.064Z,68.72
2022-11-20T09:23:57.808Z,68.71
2022-11-20T09:26:25.489Z,68.64
2022-11-20T09:28:56.964Z,68.64
2022-11-20T09:31:27.249Z,68.35
2022-11-20T09:33:55.529Z,67.86
2022-11-20T09:36:23.300Z,67.74
2022-11-20T09:38:51.210Z,67.53
2022-11-20T09:41:50.792Z,67.02
2022-11-20T09:44:33.945Z,66.98
2022-11-20T09:47:21.201Z,67.32
2022-11-20T09:50:06.239Z,66.59
2022-11-20T09:53:04.000Z,66.64
2022-11-20T09:55:32.197Z,66.65
2022-11-20T09:58:00.612Z,66.48
2022-11-20T10:00:30.510Z,66.04
2022-11-20T10:03:15.868Z,66.12
2022-11-20T10:05:47.432Z,65.49
2022-11-20T10:08:18.286Z,65.44
2022-11-20T10:10:52.616Z,65.00
2022-11-20T10:13:48.199Z,64.73
2022-11-20T10:16:41.009Z,64.77
2022-11-20T10:19:22.111Z,64.56
2022-11-20T10:22:13.969Z,64.43
2022-11-20T10:24:58.334Z,64.41
2022-11-20T10:27:48.209Z,63.82
2022-11-20T10:30:21.259Z,63.89
2022-11-20T10:32:59.584Z,63.53
2022-11-20T10:35:37.409Z,63.55
2022-11-20T10:38:13.924Z,63.39
2022-11-20T10:40:44.254Z,63.05
2022-11-20T10:43:20.235Z,62.78
2022-11-20T10:46:13.643Z,62.89
2022-11-20T10:48:44.975Z,62.83
2022-11-20T10:51:43.707Z,62.53
2022-11-20T10:54:44.437Z,62.55
2022-11-20T10:57:41.376Z,62.06
2022-11-20T11:00:13.413Z,62.17
2022-11-20T11:02:48.804Z,62.10
2022-11-20T11:05:42.057Z,61.94
2022-11-20T11:08:20.696Z,61.57
2022-11-20T11:10:51.568Z,61.52
2022-11-20T11:13:27.648Z,61.24
2022-11-20T11:15:56.606Z,61.05
2022-11-20T11:18:25.849Z,60.96
2022-11-20T11:20:55.728Z,60.30
2022-11-20T11:23:31.621Z,59.83
2022-11-20T11:26:01.990Z,59.24
2022-11-20T11:28:30.036Z,59.29
2022-11-20T11:30:57.991Z,58.76
2022-11-20T11:33:28.169Z,58.71
2022-11-20T11:35:59.538Z,58.41
2022-11-20T11:38:35.848Z,58.64
2022-11-20T11:41:05.378Z,58.66
2022-11-20T11:43:56.531Z,58.29
2022-11-20T11:46:33.608Z,57.97
2022-11-20T11:49:23.254Z,57.74
2022-11-20T11:52:10.081Z,57.56
2022-11-20T11:54:58.741Z,57.31
2022-11-20T11:57:50.941Z,57.05
2022-11-20T12:00:23.548Z,56.75
2022-11-20T12:03:16.284Z,56.59
2022-11-20T12:05:52.159Z,56.25
2022-11-20T12:08:45.986Z,55.72
2022-11-20T12:11:17.170Z,55.74
2022-11-20T12:13:55.361Z,55.13
2022-11-20T12:16:23.969Z,55.04
2022-11-20T12:18:53.617Z,55.13
2022-11-20T12:21:24.858Z,54.93
2022-11-20T12:24:43.089Z,54.56
2022-11-20T12:27:29.694Z,54.05
2022-11-20T12:30:14.893Z,53.89
2022-11-20T12:33:03.461Z,53.52
2022-11-20T12:36:09.002Z,53.73
2022-11-20T12:39:03.594Z,53.12
2022-11-20T12:42:14.380Z,53.00
2022-11-20T12:45:12.944Z,53.06
2022-11-20T12:48:17.578Z,52.28
2022-11-20T12:51:13.824Z,52.09
2022-11-20T12:53:51.655Z,51.45
2022-11-20T12:57:02.331Z,51.08
2022-11-20T12:59:59.389Z,51.17
2022-11-20T13:02:36.669Z,51.25
2022-11-20T13:05:13.752Z,51.15
2022-11-20T13:07:44.245Z,51.29
2022-11-20T13:10:22.999Z,50.80
2022-11-20T13:13:02.612Z,50.67
2022-11-20T13:15:56.212Z,50.85
2022-11-20T13:18:24.553Z,50.17
2022-11-20T13:20:53.071Z,50.28
2022-11-20T13:23:26.188Z,49.86
2022-11-20T13:26:21.467Z,49.85
2022-11-20T13:29:12.040Z,49.48
2022-11-20T13:31:44.801Z,49.43
2022-11-20T13:34:26.881Z,49.13
2022-11-20T13:36:57.114Z,49.28
2022-11-20T13:39:31.298Z,49.41
2022-11-20T13:42:19.823Z,48.99
2022-11-20T13:45:02.648Z,48.67
2022-11-20T13:47:30.620Z,48.09
2022-11-20T13:50:00.323Z,48.13
2022-11-20T13:52:37.168Z,48.06
2022-11-20T13:55:26.570Z,47.85
2022-11-20T13:58:00.162Z,47.61
2022-11-20T14:00:28.052Z,47.65
2022-11-20T14:03:18.346Z,47.70
2022-11-20T14:06:01.857Z,47.54
2022-11-20T14:08:51.758Z,47.31
2022-11-20T14:11:22.299Z,47.78
2022-11-20T14:14:04.143Z,47.97
2022-11-20T14:16:35.079Z,48.14
2022-11-20T14:19:21.868Z,47.85
2022-11-20T14:21:53.362Z,47.95
2022-11-20T14:24:24.037Z,48.09
2022-11-20T14:26:53.242Z,48.12
2022-11-20T14:29:28.027Z,48.38
2022-11-20T14:31:57.846Z,48.71
2022-11-20T14:34:28.865Z,48.69
2022-11-20T14:37:02.728Z,48.76
2022-11-20T14:39:35.623Z,49.07
2022-11-20T14:42:15.544Z,49.48
2022-11-20T14:44:44.210Z,49.71
2022-11-20T14:47:14.161Z,49.99
2022-11-20T14:49:42.560Z,50.01
2022-11-20T14:52:22.088Z,50.12
2022-11-20T14:54:49.736Z,50.38
2022-11-20T14:57:35.006Z,50.87
2022-11-20T15:00:24.495Z,51.14
2022-11-20T15:02:53.177Z,51.34
2022-11-20T15:05:24.555Z,51.51
2022-11-20T15:08:06.928Z,51.83
2022-11-20T15:10:35.557Z,52.17
2022-11-20T15:13:13.522Z,52.59
2022-11-20T15:15:44.523Z,52.77
2022-11-20T15:18:18.717Z,53.09
2022-11-20T15:20:47.049Z,53.43
2022-11-20T15:23:20.119Z,53.83
2022-11-20T15:25:49.524Z,53.82
2022-11-20T15:28:20.995Z,54.08
2022-11-20T15:30:50.422Z,54.38
2022-11-20T15:33:18.709Z,54.86
2022-11-20T15:35:46.609Z,55.10
2022-11-20T15:38:14.600Z,55.20
2022-11-20T15:40:42.601Z,55.62
2022-11-20T15:43:13.594Z,55.91
2022-11-20T15:45:53.980Z,56.19
2022-11-20T15:48:48.196Z,56.45
2022-11-20T15:51:28.199Z,56.97
2022-11-20T15:53:56.363Z,57.17
2022-11-20T15:56:25.118Z,57.07
2022-11-20T15:58:53.173Z,57.44
2022-11-20T16:01:23.094Z,57.59
2022-11-20T16:03:50.993Z,57.92
2022-11-20T16:06:18.794Z,58.29
2022-11-20T16:08:47.113Z,58.48
2022-11-20T16:11:17.117Z,58.44
2022-11-20T16:14:03.708Z,58.72
2022-11-20T16:16:34.291Z,58.78
2022-11-20T16:19:02.017Z,59.17
2022-11-20T16:21:33.150Z,59.32
2022-11-20T16:24:06.478Z,59.74
2022-11-20T16:26:34.678Z,59.74
2022-11-20T16:29:04.253Z,60.22
2022-11-20T16:31:32.561Z,60.54
2022-11-20T16:34:05.885Z,60.75
2022-11-20T16:36:41.035Z,60.78
2022-11-20T16:39:08.799Z,61.10
2022-11-20T16:41:37.337Z,62.00
2022-11-20T16:44:11.068Z,61.88
2022-11-20T16:46:40.786Z,62.19
2022-11-20T16:49:13.594Z,62.50
2022-11-20T16:51:41.796Z,63.07
2022-11-20T16:54:10.745Z,62.77
2022-11-20T16:56:39.506Z,63.14
2022-11-20T16:59:07.536Z,63.39
2022-11-20T17:01:38.724Z,63.14
2022-11-20T17:04:07.496Z,63.43
2022-11-20T17:06:39.015Z,63.75
2022-11-20T17:09:09.721Z,63.55
2022-11-20T17:11:37.905Z,63.89
2022-11-20T17:14:09.244Z,63.93
2022-11-20T17:16:38.178Z,64.49
2022-11-20T17:19:06.131Z,64.68
2022-11-20T17:21:38.149Z,64.71
2022-11-20T17:24:11.233Z,64.93
2022-11-20T17:26:41.292Z,64.83
2022-11-20T17:29:13.080Z,65.29
2022-11-20T17:31:42.048Z,65.34
2022-11-20T17:34:15.387Z,65.36
2022-11-20T17:36:45.801Z,65.81
2022-11-20T17:39:15.165Z,65.84
2022-11-20T17:41:44.362Z,66.07
2022-11-20T17:44:14.242Z,66.27
2022-11-20T17:46:41.989Z,66.36
2022-11-20T17:49:09.668Z,66.49
2022-11-20T17:51:37.613Z,66.84
2022-11-20T17:54:07.578Z,67.01
2022-11-20T17:56:54.644Z,67.21
2022-11-20T17:59:22.822Z,67.47
2022-11-20T18:01:50.601Z,67.87
2022-11-20T18:04:18.331Z,67.86
2022-11-20T18:06:46.392Z,67.76
2022-11-20T18:09:14.105Z,68.04
2022-11-20T18:11:43.297Z,67.97
2022-11-20T18:14:29.210Z,67.89
2022-11-20T18:17:02.291Z,67.76
2022-11-20T18:19:33.456Z,68.04
2022-11-20T18:22:04.304Z,68.13
2022-11-20T18:24:33.507Z,68.32
2022-11-20T18:27:02.057Z,68.28
2022-11-20T18:29:31.191Z,68.51
2022-11-20T18:31:59.890Z,68.59
2022-11-20T18:34:27.734Z,68.68
2022-11-20T18:36:55.588Z,68.69
2022-11-20T18:39:24.175Z,68.84
2022-11-20T18:42:10.642Z,68.89
2022-11-20T18:44:56.810Z,69.19
2022-11-20T18:47:28.491Z,69.46
2022-11-20T18:50:00.015Z,69.33
2022-11-20T18:52:37.844Z,69.35
2022-11-20T18:55:06.689Z,69.15
2022-11-20T18:57:34.820Z,69.31
2022-11-20T19:00:08.850Z,69.42
2022-11-20T19:05:25.824Z,69.67
2022-11-20T19:07:53.869Z,69.74
2022-11-20T19:10:24.353Z,69.58
2022-11-20T19:12:52.221Z,69.50
2022-11-20T19:15:20.348Z,69.43
2022-11-20T19:17:48.108Z,69.62
2022-11-20T19:20:16.035Z,69.51
2022-11-20T19:22:45.838Z,69.35
2022-11-20T19:25:13.441Z,69.58
2022-11-20T19:27:41.251Z,69.79
2022-11-20T19:30:10.214Z,69.80
2022-11-20T19:32:38.187Z,70.13
2022-11-20T19:35:06.695Z,70.03
2022-11-20T19:37:35.229Z,69.99
2022-11-20T19:40:04.774Z,70.08
2022-11-20T19:42:32.662Z,70.29
2022-11-20T19:45:00.563Z,70.06
2022-11-20T19:47:46.379Z,70.28
2022-11-20T19:50:16.883Z,70.08
2022-11-20T19:52:44.673Z,70.04
2022-11-20T19:55:12.416Z,70.02
2022-11-20T19:57:40.341Z,70.13
2022-11-20T20:00:08.712Z,70.02
2022-11-20T20:02:36.471Z,70.05
2022-11-20T20:05:04.803Z,69.94
2022-11-20T20:07:32.497Z,70.03
2022-11-20T20:10:00.262Z,69.86
2022-11-20T20:12:28.171Z,69.80
2022-11-20T20:14:55.823Z,69.55
2022-11-20T20:17:23.519Z,69.57
2022-11-20T20:19:51.487Z,69.70
2022-11-20T20:22:19.172Z,69.67
2022-11-20T20:24:46.920Z,69.91
2022-11-20T20:27:14.960Z,69.80
2022-11-20T20:29:42.750Z,70.11
2022-11-20T20:32:10.516Z,70.16
2022-11-20T20:34:38.941Z,70.22
2022-11-20T20:37:06.599Z,70.43
2022-11-20T20:39:34.254Z,70.48
2022-11-20T20:42:02.346Z,70.58
2022-11-20T20:44:48.600Z,70.84
2022-11-20T20:47:16.481Z,70.92
2022-11-20T20:49:44.198Z,70.97
2022-11-20T20:52:11.884Z,71.20
2022-11-20T20:54:42.269Z,71.36
2022-11-20T20:57:09.935Z,71.34
2022-11-20T20:59:38.113Z,71.48
2022-11-20T21:02:06.087Z,71.71
2022-11-20T21:04:34.016Z,71.64
2022-11-20T21:07:01.740Z,71.76
2022-11-20T21:09:29.816Z,71.88
2022-11-20T21:11:57.595Z,71.89
2022-11-20T21:14:25.599Z,72.02
2022-11-20T21:16:53.875Z,72.11
2022-11-20T21:19:21.632Z,72.27
2022-11-20T21:22:03.457Z,72.36
2022-11-20T21:24:34.014Z,72.41
2022-11-20T21:27:03.995Z,72.61
2022-11-20T21:29:32.526Z,72.76
2022-11-20T21:32:00.412Z,72.86
2022-11-20T21:34:28.182Z,73.01
2022-11-20T21:36:56.190Z,72.89
2022-11-20T21:39:24.040Z,73.05
2022-11-20T21:41:51.699Z,73.10
2022-11-20T21:44:35.339Z,73.33
2022-11-20T21:47:03.099Z,73.28
2022-11-20T21:49:31.274Z,73.40
2022-11-20T21:51:59.106Z,73.50
2022-11-20T21:54:27.035Z,73.69
2022-11-20T21:56:55.223Z,73.71
2022-11-20T21:59:23.578Z,73.64
2022-11-20T22:01:51.361Z,73.86
2022-11-20T22:04:20.216Z,73.95
2022-11-20T22:06:48.778Z,74.02
2022-11-20T22:09:16.777Z,74.12
2022-11-20T22:11:45.327Z,74.03
2022-11-20T22:14:22.047Z,74.05
2022-11-20T22:16:52.315Z,74.05
2022-11-20T22:19:21.349Z,74.16
2022-11-20T22:21:52.478Z,74.14
2022-11-20T22:24:22.444Z,74.04
2022-11-20T22:26:50.531Z,74.22
2022-11-20T22:29:21.010Z,74.25
2022-11-20T22:31:52.303Z,74.24
2022-11-20T22:34:20.256Z,74.11
2022-11-20T22:36:48.205Z,74.09
2022-11-20T22:39:16.546Z,74.30
2022-11-20T22:41:44.267Z,74.24
2022-11-20T22:44:15.959Z,74.35
2022-11-20T22:46:44.139Z,74.34
2022-11-20T22:49:11.837Z,74.25
2022-11-20T22:51:41.324Z,74.53
2022-11-20T22:54:12.186Z,74.61
2022-11-20T22:56:40.859Z,74.36
2022-11-20T22:59:08.805Z,74.39
2022-11-20T23:01:37.737Z,74.11
2022-11-20T23:04:09.112Z,73.71
2022-11-20T23:06:37.458Z,73.42
2022-11-20T23:09:06.730Z,73.53
2022-11-20T23:11:35.628Z,73.43
2022-11-20T23:14:12.284Z,73.57
2022-11-20T23:16:40.315Z,73.63
2022-11-20T23:19:10.769Z,73.59
2022-11-20T23:21:41.478Z,73.95
2022-11-20T23:24:10.696Z,74.14
2022-11-20T23:26:40.550Z,74.32
2022-11-20T23:29:09.005Z,74.61
2022-11-20T23:31:37.169Z,74.75
2022-11-20T23:34:04.955Z,74.83
2022-11-20T23:36:33.219Z,74.67
2022-11-20T23:39:01.116Z,74.28
2022-11-20T23:41:29.020Z,74.56
2022-11-20T23:43:56.922Z,74.38
2022-11-20T23:46:24.785Z,74.17
2022-11-20T23:48:52.691Z,74.47
2022-11-20T23:51:20.682Z,74.45
2022-11-20T23:53:48.494Z,74.52
2022-11-20T23:56:16.393Z,74.47
2022-11-20T23:58:44.283Z,74.63
